Terminal Aerodrome Forecast
Issued by NWS

Home | Current Version | Previous Version | Graphics & Text | Print | Product List | Glossary On
Versions: 1 2 3 4 5 6 7 8 9 10 11 12 13 14 15 16
813
FTUS43 KICT 242335
TAFSLN
TAF
KSLN 242335Z 2500/2524 33017G26KT P6SM OVC025
     FM250300 33013KT P6SM SCT030 OVC150
     FM250600 31007KT P6SM BKN150=

USA.gov is the U.S. government's official web portal to all federal, state and local government web resources and services.